Flight Track Log - Related Links

Times and Time Zones

All times are in EDT time to prevent confusion due to time zone crossing. See the SWA1031 flight status page for this flight to view local times or setup timezone preferences in your user account.

Time Position Orientation Groundspeed Altitude Reporting Facility
EDT Latitude Longitude Course Direction KTS MPH feet Rate Location/Type
Thu 03:07:16 PM 38.7333 -121.6000 134° Southeast 164 189 1,800  Level Northern Cal TRACON
Thu 03:08:16 PM 38.7167 -121.5500 113° Southeast 230 265 4,300 2,526 Climbing Northern Cal TRACON
Thu 03:09:10 PM 38.6667 -121.4833 134° Southeast 267 307 6,600 2,407 Climbing Northern Cal TRACON
Thu 03:11:08 PM 38.5833 -121.3344 126° Southeast 297 342 11,200 2,581 Climbing Oakland Center
Thu 03:12:00 PM 38.2781 -121.2066 134° Southeast  Level Estimated
Thu 03:12:09 PM 38.5278 -121.2317 125° Southeast 343 395 14,300  Level Oakland Center
Thu 03:13:11 PM 38.4592 -121.1058 125° Southeast 357 411 18,000 3,171 Climbing Oakland Center
Thu 03:14:12 PM 38.3983 -120.9917 124° Southeast 386 444 20,800 1,463 Climbing Oakland Center
Thu 03:15:14 PM 38.3361 -120.8756 124° Southeast 395 455 21,000 780 Climbing Oakland Center
Thu 03:16:15 PM 38.2739 -120.7600 124° Southeast 396 456 22,400 1,854 Climbing Oakland Center
Thu 03:17:17 PM 38.2031 -120.6522 130° Southeast 400 460 24,800 2,195 Climbing Oakland Center
Thu 03:18:18 PM 38.1086 -120.5606 143° Southeast 425 489 26,900 1,672 Climbing Oakland Center
Thu 03:19:19 PM 38.0119 -120.4661 142° Southeast 436 502 28,200 1,024 Climbing Oakland Center
Thu 03:20:21 PM 37.9108 -120.3678 142° Southeast 455 524 29,000 390 Climbing Oakland Center
Thu 03:21:22 PM 37.8128 -120.2681 141° Southeast 454 522 29,000  Level Oakland Center
Thu 03:22:24 PM 37.6914 -120.1525 143° Southeast 454 522 29,000 537 Level Oakland Center
Thu 03:23:25 PM 37.5781 -120.0769 152° Southeast 469 540 30,100 1,268 Climbing Oakland Center
Thu 03:24:27 PM 37.4625 -120.0044 154° Southeast 464 534 31,600 1,707 Climbing Oakland Center
Thu 03:25:28 PM 37.3428 -119.9358 156° South 468 539 33,600 1,756 Climbing Oakland Center
Thu 03:26:30 PM 37.2247 -119.8656 155° Southeast 470 541 35,200 1,512 Climbing Oakland Center
Thu 03:27:31 PM 37.1075 -119.7967 155° Southeast 468 539 36,700 1,561 Climbing Oakland Center
Thu 03:28:33 PM 36.9900 -119.7278 155° Southeast 466 536 38,400 1,122 Climbing Oakland Center
Thu 03:29:34 PM 36.8739 -119.6592 155° Southeast 462 532 39,000 293 Climbing Oakland Center
Thu 03:30:36 PM 36.7567 -119.5914 155° Southeast 464 534 39,000  Level Oakland Center
Thu 03:31:37 PM 36.6178 -119.5119 155° Southeast 457 526 39,000  Level Oakland Center
Thu 03:32:39 PM 36.5039 -119.4467 155° Southeast 453 521 39,000  Level Oakland Center
Thu 03:33:40 PM 36.3883 -119.3808 155° Southeast 454 522 39,000  Level Oakland Center
Thu 03:34:42 PM 36.2739 -119.3164 156° South 452 520 39,000  Level Oakland Center
Thu 03:35:43 PM 36.1597 -119.2514 155° Southeast 451 519 39,000  Level Oakland Center
Thu 03:36:44 PM 36.0444 -119.1861 155° Southeast 452 520 39,000  Level Oakland Center
Thu 03:37:46 PM 35.9317 -119.1261 157° South 440 506 39,000  Level Oakland Center
Thu 03:38:47 PM 35.8169 -119.0622 156° South 444 511 39,000 -390 Level Oakland Center
Thu 03:39:49 PM 35.7017 -118.9981 156° South 451 519 38,200 -976 Descending Oakland Center
Thu 03:40:50 PM 35.5628 -118.9200 155° Southeast 454 522 37,000 -585 Descending Oakland Center
Thu 03:41:52 PM 35.4458 -118.8553 156° South 454 522 37,000 -435 Level Los Angeles Center
Thu 03:42:54 PM 35.3306 -118.7908 155° Southeast 454 522 36,100 -919 Descending Los Angeles Center
Thu 03:43:56 PM 35.2136 -118.7264 156° South 458 527 35,100 -1,452 Descending Los Angeles Center
Thu 03:44:58 PM 35.0953 -118.6625 156° South 463 533 33,100 -1,887 Descending Los Angeles Center
Thu 03:46:00 PM 34.9867 -118.5786 148° Southeast 469 540 31,200 -2,226 Descending Los Angeles Center
Thu 03:47:02 PM 34.8981 -118.4497 130° Southeast 470 541 28,500 -2,468 Descending Los Angeles Center
Thu 03:48:04 PM 34.8178 -118.3358 131° Southeast 451 519 26,100 -2,177 Descending Los Angeles Center
Thu 03:49:06 PM 34.7411 -118.2231 130° Southeast 438 504 24,000 -1,210 Descending Los Angeles Center
Thu 03:50:08 PM 34.6508 -118.0944 130° Southeast 422 486 23,600 -1,258 Descending Los Angeles Center
Thu 03:51:10 PM 34.5911 -117.9789 122° Southeast 410 472 21,400 -2,129 Descending Los Angeles Center
Thu 03:52:12 PM 34.5378 -117.8628 119° Southeast 399 459 19,200 -1,887 Descending Los Angeles Center
Thu 03:53:14 PM 34.4867 -117.7494 119° Southeast 388 447 17,500 -1,887 Descending Los Angeles Center
Thu 03:54:16 PM 34.4358 -117.6400 119° Southeast 377 434 15,300 -1,694 Descending Los Angeles Center
Thu 03:55:18 PM 34.3825 -117.5167 118° Southeast 345 397 14,000 -1,065 Descending Los Angeles Center
Thu 03:56:20 PM 34.3442 -117.4353 120° Southeast 316 364 13,100 -1,306 Descending Los Angeles Center
Thu 03:57:22 PM 34.2853 -117.3381 126° Southeast 307 353 11,300 -1,548 Descending Los Angeles Center
Thu 03:58:24 PM 34.2042 -117.3128 166° South 300 345 9,900 -1,349 Descending Los Angeles Center
Thu 03:59:31 PM 34.1167 -117.3167 182° South 303 349 8,400 -1,323 Descending Southern California TRACON
Thu 04:00:31 PM 34.1000 -117.4167 259° West 286 329 7,100 -1,300 Descending Southern California TRACON
Thu 04:01:31 PM 34.1000 -117.5167 270° West 283 326 5,800 -1,150 Descending Southern California TRACON
Thu 04:02:31 PM 34.1000 -117.6000 270° West 276 318 4,800 -950 Descending Southern California TRACON
Thu 04:03:31 PM 34.1000 -117.6833 270° West 233 268 3,900 -893 Descending Southern California TRACON
Thu 04:04:32 PM 34.1000 -117.7500 270° West 202 232 3,000 -446 Descending Southern California TRACON
Thu 04:05:32 PM 34.0667 -117.7333 158° South 177 204 3,000 -400 Level Southern California TRACON
Thu 04:06:32 PM 34.0500 -117.7000 121° Southeast 138 159 2,200 -750 Descending Southern California TRACON
Thu 04:07:32 PM 34.0500 -117.6500 90° East 130 150 1,500 -700 Descending Southern California TRACON
Thu 04:10:00 PM 34.0560 -117.6012 97° East  Level Estimated

Login

Don't have an account? Register now (free) for customized features, flight alerts, and more!